sensor_id;sensor_type;location;lat;lon;timestamp;temperature;humidity
76291;DHT22;65100;46.884;17.410;2022-11-20T00:01:40;5.10;87.01
76291;DHT22;65100;46.884;17.410;2022-11-20T00:04:06;5.15;86.92
76291;DHT22;65100;46.884;17.410;2022-11-20T00:06:31;5.14;87.28
76291;DHT22;65100;46.884;17.410;2022-11-20T00:08:59;5.03;86.40
76291;DHT22;65100;46.884;17.410;2022-11-20T00:11:26;5.01;86.38
76291;DHT22;65100;46.884;17.410;2022-11-20T00:13:56;5.05;86.85
76291;DHT22;65100;46.884;17.410;2022-11-20T00:16:24;5.00;86.45
76291;DHT22;65100;46.884;17.410;2022-11-20T00:18:50;4.94;87.14
76291;DHT22;65100;46.884;17.410;2022-11-20T00:21:18;4.95;86.71
76291;DHT22;65100;46.884;17.410;2022-11-20T00:23:45;4.95;85.82
76291;DHT22;65100;46.884;17.410;2022-11-20T00:26:13;4.98;86.17
76291;DHT22;65100;46.884;17.410;2022-11-20T00:28:39;5.00;85.50
76291;DHT22;65100;46.884;17.410;2022-11-20T00:31:15;5.01;85.04
76291;DHT22;65100;46.884;17.410;2022-11-20T00:33:41;5.07;85.32
76291;DHT22;65100;46.884;17.410;2022-11-20T00:36:13;5.01;85.64
76291;DHT22;65100;46.884;17.410;2022-11-20T00:38:39;4.97;85.23
76291;DHT22;65100;46.884;17.410;2022-11-20T00:41:07;5.00;85.44
76291;DHT22;65100;46.884;17.410;2022-11-20T00:43:33;5.01;86.20
76291;DHT22;65100;46.884;17.410;2022-11-20T00:46:06;4.97;86.12
76291;DHT22;65100;46.884;17.410;2022-11-20T00:48:32;5.03;86.40
76291;DHT22;65100;46.884;17.410;2022-11-20T00:50:57;5.00;86.20
76291;DHT22;65100;46.884;17.410;2022-11-20T00:53:23;4.94;85.31
76291;DHT22;65100;46.884;17.410;2022-11-20T00:55:58;4.87;85.53
76291;DHT22;65100;46.884;17.410;2022-11-20T00:58:25;4.88;86.11
76291;DHT22;65100;46.884;17.410;2022-11-20T01:00:53;4.79;85.20
76291;DHT22;65100;46.884;17.410;2022-11-20T01:03:24;4.80;86.19
76291;DHT22;65100;46.884;17.410;2022-11-20T01:05:49;4.74;86.28
76291;DHT22;65100;46.884;17.410;2022-11-20T01:08:15;4.70;85.90
76291;DHT22;65100;46.884;17.410;2022-11-20T01:10:40;4.70;85.74
76291;DHT22;65100;46.884;17.410;2022-11-20T01:13:06;4.67;85.77
76291;DHT22;65100;46.884;17.410;2022-11-20T01:15:50;4.66;86.27
76291;DHT22;65100;46.884;17.410;2022-11-20T01:18:15;4.59;85.41
76291;DHT22;65100;46.884;17.410;2022-11-20T01:20:41;4.53;85.19
76291;DHT22;65100;46.884;17.410;2022-11-20T01:23:06;4.50;85.08
76291;DHT22;65100;46.884;17.410;2022-11-20T01:25:31;4.53;85.42
76291;DHT22;65100;46.884;17.410;2022-11-20T01:27:59;4.53;86.10
76291;DHT22;65100;46.884;17.410;2022-11-20T01:30:24;4.56;85.78
76291;DHT22;65100;46.884;17.410;2022-11-20T01:32:50;4.59;85.82
76291;DHT22;65100;46.884;17.410;2022-11-20T01:35:15;4.59;86.11
76291;DHT22;65100;46.884;17.410;2022-11-20T01:37:40;4.53;85.19
76291;DHT22;65100;46.884;17.410;2022-11-20T01:40:06;4.50;85.87
76291;DHT22;65100;46.884;17.410;2022-11-20T01:42:32;4.43;85.43
76291;DHT22;65100;46.884;17.410;2022-11-20T01:48:13;4.45;85.10
76291;DHT22;65100;46.884;17.410;2022-11-20T01:50:39;4.46;85.65
76291;DHT22;65100;46.884;17.410;2022-11-20T01:53:08;4.50;85.27
76291;DHT22;65100;46.884;17.410;2022-11-20T01:55:41;4.53;84.93
76291;DHT22;65100;46.884;17.410;2022-11-20T01:58:07;4.43;85.39
76291;DHT22;65100;46.884;17.410;2022-11-20T02:00:33;4.42;85.48
76291;DHT22;65100;46.884;17.410;2022-11-20T02:03:06;4.52;84.89
76291;DHT22;65100;46.884;17.410;2022-11-20T02:05:44;4.57;85.13
76291;DHT22;65100;46.884;17.410;2022-11-20T02:08:11;4.49;84.94
76291;DHT22;65100;46.884;17.410;2022-11-20T02:10:37;4.39;84.61
76291;DHT22;65100;46.884;17.410;2022-11-20T02:13:03;4.37;85.15
76291;DHT22;65100;46.884;17.410;2022-11-20T02:15:48;4.29;84.83
76291;DHT22;65100;46.884;17.410;2022-11-20T02:18:15;4.36;84.92
76291;DHT22;65100;46.884;17.410;2022-11-20T02:20:47;4.47;85.32
76291;DHT22;65100;46.884;17.410;2022-11-20T02:23:24;4.49;84.24
76291;DHT22;65100;46.884;17.410;2022-11-20T02:25:53;4.49;84.75
76291;DHT22;65100;46.884;17.410;2022-11-20T02:28:19;4.45;84.53
76291;DHT22;65100;46.884;17.410;2022-11-20T02:30:45;4.43;85.09
76291;DHT22;65100;46.884;17.410;2022-11-20T02:33:10;4.42;85.38
76291;DHT22;65100;46.884;17.410;2022-11-20T02:35:40;4.35;85.10
76291;DHT22;65100;46.884;17.410;2022-11-20T02:38:06;4.36;85.75
76291;DHT22;65100;46.884;17.410;2022-11-20T02:40:32;4.37;86.11
76291;DHT22;65100;46.884;17.410;2022-11-20T02:42:57;4.39;86.23
76291;DHT22;65100;46.884;17.410;2022-11-20T02:45:23;4.39;86.84
76291;DHT22;65100;46.884;17.410;2022-11-20T02:47:49;4.36;86.41
76291;DHT22;65100;46.884;17.410;2022-11-20T02:50:15;4.28;85.24
76291;DHT22;65100;46.884;17.410;2022-11-20T02:52:41;4.20;85.13
76291;DHT22;65100;46.884;17.410;2022-11-20T02:55:07;4.28;86.63
76291;DHT22;65100;46.884;17.410;2022-11-20T02:57:33;4.15;85.43
76291;DHT22;65100;46.884;17.410;2022-11-20T02:59:58;4.16;85.40
76291;DHT22;65100;46.884;17.410;2022-11-20T03:02:24;4.23;86.52
76291;DHT22;65100;46.884;17.410;2022-11-20T03:04:49;4.23;86.62
76291;DHT22;65100;46.884;17.410;2022-11-20T03:07:15;4.28;86.44
76291;DHT22;65100;46.884;17.410;2022-11-20T03:09:40;4.28;87.01
76291;DHT22;65100;46.884;17.410;2022-11-20T03:12:06;4.32;87.38
76291;DHT22;65100;46.884;17.410;2022-11-20T03:14:32;4.29;86.59
76291;DHT22;65100;46.884;17.410;2022-11-20T03:16:57;4.26;86.38
76291;DHT22;65100;46.884;17.410;2022-11-20T03:19:23;4.28;87.37
76291;DHT22;65100;46.884;17.410;2022-11-20T03:21:48;4.29;86.61
76291;DHT22;65100;46.884;17.410;2022-11-20T03:24:14;4.19;86.42
76291;DHT22;65100;46.884;17.410;2022-11-20T03:26:40;4.23;86.95
76291;DHT22;65100;46.884;17.410;2022-11-20T03:29:06;4.26;86.49
76291;DHT22;65100;46.884;17.410;2022-11-20T03:31:34;4.28;86.16
76291;DHT22;65100;46.884;17.410;2022-11-20T03:34:00;4.25;85.05
76291;DHT22;65100;46.884;17.410;2022-11-20T03:36:27;4.25;85.33
76291;DHT22;65100;46.884;17.410;2022-11-20T03:38:54;4.23;85.01
76291;DHT22;65100;46.884;17.410;2022-11-20T03:41:23;4.25;84.93
76291;DHT22;65100;46.884;17.410;2022-11-20T03:43:49;4.16;84.73
76291;DHT22;65100;46.884;17.410;2022-11-20T03:46:16;4.25;85.38
76291;DHT22;65100;46.884;17.410;2022-11-20T03:48:41;4.26;84.75
76291;DHT22;65100;46.884;17.410;2022-11-20T03:53:36;4.23;84.26
76291;DHT22;65100;46.884;17.410;2022-11-20T03:56:02;4.33;84.71
76291;DHT22;65100;46.884;17.410;2022-11-20T03:58:28;4.33;84.86
76291;DHT22;65100;46.884;17.410;2022-11-20T04:00:54;4.23;84.88
76291;DHT22;65100;46.884;17.410;2022-11-20T04:03:19;4.30;84.49
76291;DHT22;65100;46.884;17.410;2022-11-20T04:05:45;4.29;86.25
76291;DHT22;65100;46.884;17.410;2022-11-20T04:08:10;4.35;85.49
76291;DHT22;65100;46.884;17.410;2022-11-20T04:10:36;4.33;85.28
76291;DHT22;65100;46.884;17.410;2022-11-20T04:13:01;4.26;85.07
76291;DHT22;65100;46.884;17.410;2022-11-20T04:15:27;4.28;84.37
76291;DHT22;65100;46.884;17.410;2022-11-20T04:17:53;4.28;85.15
76291;DHT22;65100;46.884;17.410;2022-11-20T04:20:19;4.26;85.18
76291;DHT22;65100;46.884;17.410;2022-11-20T04:22:44;4.22;84.43
76291;DHT22;65100;46.884;17.410;2022-11-20T04:25:10;4.28;84.41
76291;DHT22;65100;46.884;17.410;2022-11-20T04:27:35;4.23;83.93
76291;DHT22;65100;46.884;17.410;2022-11-20T04:30:01;4.23;84.35
76291;DHT22;65100;46.884;17.410;2022-11-20T04:32:26;4.20;84.75
76291;DHT22;65100;46.884;17.410;2022-11-20T04:34:52;4.16;84.38
76291;DHT22;65100;46.884;17.410;2022-11-20T04:37:17;4.15;84.86
76291;DHT22;65100;46.884;17.410;2022-11-20T04:39:43;4.17;84.40
76291;DHT22;65100;46.884;17.410;2022-11-20T04:42:09;4.29;84.27
76291;DHT22;65100;46.884;17.410;2022-11-20T04:44:53;4.29;84.17
76291;DHT22;65100;46.884;17.410;2022-11-20T04:47:19;4.29;84.22
76291;DHT22;65100;46.884;17.410;2022-11-20T04:49:44;4.29;84.42
76291;DHT22;65100;46.884;17.410;2022-11-20T04:52:10;4.26;84.65
76291;DHT22;65100;46.884;17.410;2022-11-20T04:54:35;4.29;85.28
76291;DHT22;65100;46.884;17.410;2022-11-20T04:57:00;4.07;85.73
76291;DHT22;65100;46.884;17.410;2022-11-20T04:59:26;4.29;85.33
76291;DHT22;65100;46.884;17.410;2022-11-20T05:01:51;4.32;84.07
76291;DHT22;65100;46.884;17.410;2022-11-20T05:04:17;4.36;84.53
76291;DHT22;65100;46.884;17.410;2022-11-20T05:06:42;4.33;84.26
76291;DHT22;65100;46.884;17.410;2022-11-20T05:09:08;4.36;84.33
76291;DHT22;65100;46.884;17.410;2022-11-20T05:11:33;4.28;84.57
76291;DHT22;65100;46.884;17.410;2022-11-20T05:14:00;4.33;85.22
76291;DHT22;65100;46.884;17.410;2022-11-20T05:16:26;4.36;84.34
76291;DHT22;65100;46.884;17.410;2022-11-20T05:18:53;4.30;84.67
76291;DHT22;65100;46.884;17.410;2022-11-20T05:21:20;4.29;84.41
76291;DHT22;65100;46.884;17.410;2022-11-20T05:23:46;4.28;84.19
76291;DHT22;65100;46.884;17.410;2022-11-20T05:26:15;4.19;85.13
76291;DHT22;65100;46.884;17.410;2022-11-20T05:28:40;4.20;84.64
76291;DHT22;65100;46.884;17.410;2022-11-20T05:31:14;4.25;84.48
76291;DHT22;65100;46.884;17.410;2022-11-20T05:33:41;4.29;84.80
76291;DHT22;65100;46.884;17.410;2022-11-20T05:36:07;4.35;84.27
76291;DHT22;65100;46.884;17.410;2022-11-20T05:38:33;4.40;84.42
76291;DHT22;65100;46.884;17.410;2022-11-20T05:41:12;4.37;84.50
76291;DHT22;65100;46.884;17.410;2022-11-20T05:43:58;4.33;84.51
76291;DHT22;65100;46.884;17.410;2022-11-20T05:46:44;4.32;84.56
76291;DHT22;65100;46.884;17.410;2022-11-20T05:49:09;4.28;84.53
76291;DHT22;65100;46.884;17.410;2022-11-20T05:51:35;4.32;84.52
76291;DHT22;65100;46.884;17.410;2022-11-20T05:54:00;4.30;84.71
76291;DHT22;65100;46.884;17.410;2022-11-20T05:56:26;4.36;84.10
76291;DHT22;65100;46.884;17.410;2022-11-20T05:58:51;4.37;84.32
76291;DHT22;65100;46.884;17.410;2022-11-20T06:01:18;4.32;84.57
76291;DHT22;65100;46.884;17.410;2022-11-20T06:03:44;4.33;84.15
76291;DHT22;65100;46.884;17.410;2022-11-20T06:06:16;4.30;84.60
76291;DHT22;65100;46.884;17.410;2022-11-20T06:08:42;4.32;83.82
76291;DHT22;65100;46.884;17.410;2022-11-20T06:11:09;4.40;83.98
76291;DHT22;65100;46.884;17.410;2022-11-20T06:13:35;4.26;84.16
76291;DHT22;65100;46.884;17.410;2022-11-20T06:16:01;4.19;84.86
76291;DHT22;65100;46.884;17.410;2022-11-20T06:18:29;4.03;85.98
76291;DHT22;65100;46.884;17.410;2022-11-20T06:21:12;4.02;86.53
76291;DHT22;65100;46.884;17.410;2022-11-20T06:23:38;4.30;84.53
76291;DHT22;65100;46.884;17.410;2022-11-20T06:26:10;4.35;85.20
76291;DHT22;65100;46.884;17.410;2022-11-20T06:28:36;4.33;85.06
76291;DHT22;65100;46.884;17.410;2022-11-20T06:31:02;4.28;84.90
76291;DHT22;65100;46.884;17.410;2022-11-20T06:33:28;4.12;85.81
76291;DHT22;65100;46.884;17.410;2022-11-20T06:35:56;4.28;85.27
76291;DHT22;65100;46.884;17.410;2022-11-20T06:38:22;4.46;84.51
76291;DHT22;65100;46.884;17.410;2022-11-20T06:40:47;4.49;83.80
76291;DHT22;65100;46.884;17.410;2022-11-20T06:43:13;4.53;83.99
76291;DHT22;65100;46.884;17.410;2022-11-20T06:45:38;4.50;83.27
76291;DHT22;65100;46.884;17.410;2022-11-20T06:48:04;4.47;84.24
76291;DHT22;65100;46.884;17.410;2022-11-20T06:50:29;4.46;84.33
76291;DHT22;65100;46.884;17.410;2022-11-20T06:52:55;4.45;84.00
76291;DHT22;65100;46.884;17.410;2022-11-20T06:55:20;4.49;84.42
76291;DHT22;65100;46.884;17.410;2022-11-20T06:57:46;4.54;84.46
76291;DHT22;65100;46.884;17.410;2022-11-20T07:00:12;4.59;83.63
76291;DHT22;65100;46.884;17.410;2022-11-20T07:02:37;4.57;83.75
76291;DHT22;65100;46.884;17.410;2022-11-20T07:05:03;4.56;84.37
76291;DHT22;65100;46.884;17.410;2022-11-20T07:07:28;4.43;84.75
76291;DHT22;65100;46.884;17.410;2022-11-20T07:09:54;4.46;85.28
76291;DHT22;65100;46.884;17.410;2022-11-20T07:12:20;4.36;85.50
76291;DHT22;65100;46.884;17.410;2022-11-20T07:14:46;4.52;84.92
76291;DHT22;65100;46.884;17.410;2022-11-20T07:17:11;4.43;85.23
76291;DHT22;65100;46.884;17.410;2022-11-20T07:19:37;4.35;85.72
76291;DHT22;65100;46.884;17.410;2022-11-20T07:22:02;3.94;87.07
76291;DHT22;65100;46.884;17.410;2022-11-20T07:24:28;3.78;88.08
76291;DHT22;65100;46.884;17.410;2022-11-20T07:26:53;3.74;89.42
76291;DHT22;65100;46.884;17.410;2022-11-20T07:29:19;4.32;86.36
76291;DHT22;65100;46.884;17.410;2022-11-20T07:31:44;4.29;86.22
76291;DHT22;65100;46.884;17.410;2022-11-20T07:34:10;4.16;86.79
76291;DHT22;65100;46.884;17.410;2022-11-20T07:36:35;4.19;87.35
76291;DHT22;65100;46.884;17.410;2022-11-20T07:39:01;4.25;86.91
76291;DHT22;65100;46.884;17.410;2022-11-20T07:41:26;4.22;86.58
76291;DHT22;65100;46.884;17.410;2022-11-20T07:43:53;4.20;87.35
76291;DHT22;65100;46.884;17.410;2022-11-20T07:46:18;4.20;86.72
76291;DHT22;65100;46.884;17.410;2022-11-20T07:48:43;3.99;89.04
76291;DHT22;65100;46.884;17.410;2022-11-20T07:51:09;4.15;87.79
76291;DHT22;65100;46.884;17.410;2022-11-20T07:53:34;4.32;87.50
76291;DHT22;65100;46.884;17.410;2022-11-20T07:56:01;4.59;86.13
76291;DHT22;65100;46.884;17.410;2022-11-20T07:58:28;4.71;84.85
76291;DHT22;65100;46.884;17.410;2022-11-20T08:00:54;4.59;85.94
76291;DHT22;65100;46.884;17.410;2022-11-20T08:03:19;4.59;85.47
76291;DHT22;65100;46.884;17.410;2022-11-20T08:05:45;4.46;86.30
76291;DHT22;65100;46.884;17.410;2022-11-20T08:08:10;4.64;85.57
76291;DHT22;65100;46.884;17.410;2022-11-20T08:10:36;4.76;85.15
76291;DHT22;65100;46.884;17.410;2022-11-20T08:13:01;4.77;84.79
76291;DHT22;65100;46.884;17.410;2022-11-20T08:15:49;4.67;86.05
76291;DHT22;65100;46.884;17.410;2022-11-20T08:18:18;4.67;86.52
76291;DHT22;65100;46.884;17.410;2022-11-20T08:20:44;4.46;86.06
76291;DHT22;65100;46.884;17.410;2022-11-20T08:23:10;4.61;86.61
76291;DHT22;65100;46.884;17.410;2022-11-20T08:25:37;4.49;86.56
76291;DHT22;65100;46.884;17.410;2022-11-20T08:28:08;4.37;86.60
76291;DHT22;65100;46.884;17.410;2022-11-20T08:30:35;4.59;86.43
76291;DHT22;65100;46.884;17.410;2022-11-20T08:33:03;4.87;85.54
76291;DHT22;65100;46.884;17.410;2022-11-20T08:35:33;4.93;84.95
76291;DHT22;65100;46.884;17.410;2022-11-20T08:38:00;4.73;85.60
76291;DHT22;65100;46.884;17.410;2022-11-20T08:40:25;5.03;84.89
76291;DHT22;65100;46.884;17.410;2022-11-20T08:42:51;5.24;83.99
76291;DHT22;65100;46.884;17.410;2022-11-20T08:45:17;5.21;84.67
76291;DHT22;65100;46.884;17.410;2022-11-20T08:47:44;5.41;84.50
76291;DHT22;65100;46.884;17.410;2022-11-20T08:50:11;5.44;84.04
76291;DHT22;65100;46.884;17.410;2022-11-20T08:52:37;5.44;84.47
76291;DHT22;65100;46.884;17.410;2022-11-20T08:55:04;5.54;83.99
76291;DHT22;65100;46.884;17.410;2022-11-20T08:57:34;5.54;83.88
76291;DHT22;65100;46.884;17.410;2022-11-20T08:59:59;5.58;84.06
76291;DHT22;65100;46.884;17.410;2022-11-20T09:02:25;5.65;83.34
76291;DHT22;65100;46.884;17.410;2022-11-20T09:04:51;5.63;83.56
76291;DHT22;65100;46.884;17.410;2022-11-20T09:07:16;5.56;83.37
76291;DHT22;65100;46.884;17.410;2022-11-20T09:09:41;5.68;83.84
76291;DHT22;65100;46.884;17.410;2022-11-20T09:12:07;5.69;83.57
76291;DHT22;65100;46.884;17.410;2022-11-20T09:14:32;5.75;81.67
76291;DHT22;65100;46.884;17.410;2022-11-20T09:16:59;5.81;83.04
76291;DHT22;65100;46.884;17.410;2022-11-20T09:19:25;5.83;82.64
76291;DHT22;65100;46.884;17.410;2022-11-20T09:21:50;5.82;82.86
76291;DHT22;65100;46.884;17.410;2022-11-20T09:24:16;5.78;83.74
76291;DHT22;65100;46.884;17.410;2022-11-20T09:26:41;5.76;84.01
76291;DHT22;65100;46.884;17.410;2022-11-20T09:29:07;5.96;83.39
76291;DHT22;65100;46.884;17.410;2022-11-20T09:31:32;6.07;82.20
76291;DHT22;65100;46.884;17.410;2022-11-20T09:33:58;6.10;82.66
76291;DHT22;65100;46.884;17.410;2022-11-20T09:36:23;6.07;83.69
76291;DHT22;65100;46.884;17.410;2022-11-20T09:38:48;6.12;82.22
76291;DHT22;65100;46.884;17.410;2022-11-20T09:55:02;6.02;83.22
76291;DHT22;65100;46.884;17.410;2022-11-20T09:57:36;6.01;83.49
76291;DHT22;65100;46.884;17.410;2022-11-20T10:00:06;6.01;84.38
76291;DHT22;65100;46.884;17.410;2022-11-20T10:08:25;6.40;84.08
76291;DHT22;65100;46.884;17.410;2022-11-20T10:11:17;6.33;82.54
76291;DHT22;65100;46.884;17.410;2022-11-20T10:14:16;6.36;83.37
76291;DHT22;65100;46.884;17.410;2022-11-20T10:25:14;6.50;83.52
76291;DHT22;65100;46.884;17.410;2022-11-20T10:28:10;6.50;83.16
76291;DHT22;65100;46.884;17.410;2022-11-20T10:31:08;6.57;81.40
76291;DHT22;65100;46.884;17.410;2022-11-20T10:33:43;6.66;81.95
76291;DHT22;65100;46.884;17.410;2022-11-20T10:36:26;6.60;81.64
76291;DHT22;65100;46.884;17.410;2022-11-20T10:39:00;6.71;82.09
76291;DHT22;65100;46.884;17.410;2022-11-20T10:41:31;6.71;80.93
76291;DHT22;65100;46.884;17.410;2022-11-20T10:44:08;6.56;82.67
76291;DHT22;65100;46.884;17.410;2022-11-20T10:46:44;6.69;82.10
76291;DHT22;65100;46.884;17.410;2022-11-20T10:49:13;6.70;81.18
76291;DHT22;65100;46.884;17.410;2022-11-20T11:00:12;6.76;81.51
76291;DHT22;65100;46.884;17.410;2022-11-20T11:02:44;6.77;80.98
76291;DHT22;65100;46.884;17.410;2022-11-20T11:07:49;6.76;80.78
76291;DHT22;65100;46.884;17.410;2022-11-20T11:10:18;6.77;80.44
76291;DHT22;65100;46.884;17.410;2022-11-20T11:12:46;6.74;81.69
76291;DHT22;65100;46.884;17.410;2022-11-20T11:15:38;6.67;81.76
76291;DHT22;65100;46.884;17.410;2022-11-20T11:18:04;6.87;80.60
76291;DHT22;65100;46.884;17.410;2022-11-20T11:20:31;6.83;80.09
76291;DHT22;65100;46.884;17.410;2022-11-20T11:22:59;6.87;81.52
76291;DHT22;65100;46.884;17.410;2022-11-20T11:25:35;6.94;82.43
76291;DHT22;65100;46.884;17.410;2022-11-20T11:28:19;6.79;80.88
76291;DHT22;65100;46.884;17.410;2022-11-20T11:30:45;6.80;80.90
76291;DHT22;65100;46.884;17.410;2022-11-20T11:33:29;6.83;82.75
76291;DHT22;65100;46.884;17.410;2022-11-20T11:35:59;6.90;81.51
76291;DHT22;65100;46.884;17.410;2022-11-20T11:38:32;6.90;81.10
76291;DHT22;65100;46.884;17.410;2022-11-20T11:40:59;6.84;81.33
76291;DHT22;65100;46.884;17.410;2022-11-20T11:43:32;6.97;82.19
76291;DHT22;65100;46.884;17.410;2022-11-20T11:49:00;6.90;82.88
76291;DHT22;65100;46.884;17.410;2022-11-20T11:51:39;6.87;83.75
76291;DHT22;65100;46.884;17.410;2022-11-20T11:54:15;6.88;83.44
76291;DHT22;65100;46.884;17.410;2022-11-20T11:56:43;6.81;82.59
76291;DHT22;65100;46.884;17.410;2022-11-20T11:59:15;6.85;82.44
76291;DHT22;65100;46.884;17.410;2022-11-20T12:01:50;6.84;81.24
76291;DHT22;65100;46.884;17.410;2022-11-20T12:04:54;6.84;82.24
76291;DHT22;65100;46.884;17.410;2022-11-20T12:07:36;6.88;81.75
76291;DHT22;65100;46.884;17.410;2022-11-20T12:10:04;7.01;81.88
76291;DHT22;65100;46.884;17.410;2022-11-20T12:12:36;6.87;80.77
76291;DHT22;65100;46.884;17.410;2022-11-20T12:15:06;6.87;81.37
76291;DHT22;65100;46.884;17.410;2022-11-20T12:17:34;6.79;81.08
76291;DHT22;65100;46.884;17.410;2022-11-20T12:20:00;6.83;81.65
76291;DHT22;65100;46.884;17.410;2022-11-20T12:23:01;6.87;81.62
76291;DHT22;65100;46.884;17.410;2022-11-20T12:25:35;6.93;80.12
76291;DHT22;65100;46.884;17.410;2022-11-20T12:31:26;6.93;80.84
76291;DHT22;65100;46.884;17.410;2022-11-20T12:39:41;6.88;80.97
76291;DHT22;65100;46.884;17.410;2022-11-20T12:57:40;7.07;80.42
76291;DHT22;65100;46.884;17.410;2022-11-20T13:03:36;7.03;80.31
76291;DHT22;65100;46.884;17.410;2022-11-20T13:08:02;6.87;81.13
76291;DHT22;65100;46.884;17.410;2022-11-20T13:10:56;7.04;80.10
76291;DHT22;65100;46.884;17.410;2022-11-20T13:19:04;6.66;82.54
76291;DHT22;65100;46.884;17.410;2022-11-20T13:21:38;6.49;83.03
76291;DHT22;65100;46.884;17.410;2022-11-20T13:24:28;6.53;83.30
76291;DHT22;65100;46.884;17.410;2022-11-20T13:29:34;6.41;84.63
76291;DHT22;65100;46.884;17.410;2022-11-20T13:32:15;6.49;84.79
76291;DHT22;65100;46.884;17.410;2022-11-20T13:34:52;6.30;84.57
76291;DHT22;65100;46.884;17.410;2022-11-20T13:37:36;6.49;84.88
76291;DHT22;65100;46.884;17.410;2022-11-20T13:42:37;6.26;85.50
76291;DHT22;65100;46.884;17.410;2022-11-20T13:45:10;6.19;85.92
76291;DHT22;65100;46.884;17.410;2022-11-20T13:47:36;6.23;86.44
76291;DHT22;65100;46.884;17.410;2022-11-20T13:50:03;6.22;85.69
76291;DHT22;65100;46.884;17.410;2022-11-20T13:52:55;6.23;85.61
76291;DHT22;65100;46.884;17.410;2022-11-20T14:00:44;6.12;86.39
76291;DHT22;65100;46.884;17.410;2022-11-20T14:03:21;6.23;86.52
76291;DHT22;65100;46.884;17.410;2022-11-20T14:06:00;6.53;84.41
76291;DHT22;65100;46.884;17.410;2022-11-20T14:08:36;6.58;83.99
76291;DHT22;65100;46.884;17.410;2022-11-20T14:11:17;6.30;85.59
76291;DHT22;65100;46.884;17.410;2022-11-20T14:14:18;6.49;84.70
76291;DHT22;65100;46.884;17.410;2022-11-20T14:16:44;6.46;84.87
76291;DHT22;65100;46.884;17.410;2022-11-20T14:21:48;6.23;84.67
76291;DHT22;65100;46.884;17.410;2022-11-20T14:24:19;6.13;85.59
76291;DHT22;65100;46.884;17.410;2022-11-20T14:26:46;6.19;84.78
76291;DHT22;65100;46.884;17.410;2022-11-20T14:29:17;6.17;85.84
76291;DHT22;65100;46.884;17.410;2022-11-20T14:31:44;6.44;84.60
76291;DHT22;65100;46.884;17.410;2022-11-20T14:34:17;6.69;83.40
76291;DHT22;65100;46.884;17.410;2022-11-20T14:36:43;6.71;82.22
76291;DHT22;65100;46.884;17.410;2022-11-20T14:39:12;6.74;82.35
76291;DHT22;65100;46.884;17.410;2022-11-20T14:41:37;6.66;82.32
76291;DHT22;65100;46.884;17.410;2022-11-20T14:44:04;6.63;82.09
76291;DHT22;65100;46.884;17.410;2022-11-20T14:46:30;6.63;82.15
76291;DHT22;65100;46.884;17.410;2022-11-20T14:48:59;6.56;82.23
76291;DHT22;65100;46.884;17.410;2022-11-20T14:51:32;6.44;82.53
76291;DHT22;65100;46.884;17.410;2022-11-20T14:54:12;6.44;82.52
76291;DHT22;65100;46.884;17.410;2022-11-20T14:56:39;6.29;82.74
76291;DHT22;65100;46.884;17.410;2022-11-20T14:59:05;6.23;83.32
76291;DHT22;65100;46.884;17.410;2022-11-20T15:01:32;6.15;83.76
76291;DHT22;65100;46.884;17.410;2022-11-20T15:04:04;6.16;83.68
76291;DHT22;65100;46.884;17.410;2022-11-20T15:06:30;5.82;83.96
76291;DHT22;65100;46.884;17.410;2022-11-20T15:08:57;5.69;84.24
76291;DHT22;65100;46.884;17.410;2022-11-20T15:11:33;5.61;84.29
76291;DHT22;65100;46.884;17.410;2022-11-20T15:14:05;5.56;84.04
76291;DHT22;65100;46.884;17.410;2022-11-20T15:16:31;5.49;84.62
76291;DHT22;65100;46.884;17.410;2022-11-20T15:18:56;5.49;83.83
76291;DHT22;65100;46.884;17.410;2022-11-20T15:21:22;5.34;83.41
76291;DHT22;65100;46.884;17.410;2022-11-20T15:23:47;5.24;83.77
76291;DHT22;65100;46.884;17.410;2022-11-20T15:26:18;5.05;84.12
76291;DHT22;65100;46.884;17.410;2022-11-20T15:28:46;5.01;84.56
76291;DHT22;65100;46.884;17.410;2022-11-20T15:31:14;4.77;85.28
76291;DHT22;65100;46.884;17.410;2022-11-20T15:33:40;4.63;85.92
76291;DHT22;65100;46.884;17.410;2022-11-20T15:36:06;4.36;87.58
76291;DHT22;65100;46.884;17.410;2022-11-20T15:38:32;4.42;87.11
76291;DHT22;65100;46.884;17.410;2022-11-20T15:40:57;4.43;87.57
76291;DHT22;65100;46.884;17.410;2022-11-20T15:43:23;4.20;88.47
76291;DHT22;65100;46.884;17.410;2022-11-20T15:45:54;4.16;88.81
76291;DHT22;65100;46.884;17.410;2022-11-20T15:48:26;4.15;88.81
76291;DHT22;65100;46.884;17.410;2022-11-20T15:50:58;4.19;88.49
76291;DHT22;65100;46.884;17.410;2022-11-20T15:53:23;4.40;87.96
76291;DHT22;65100;46.884;17.410;2022-11-20T15:55:49;4.80;85.73
76291;DHT22;65100;46.884;17.410;2022-11-20T15:58:14;4.71;84.70
76291;DHT22;65100;46.884;17.410;2022-11-20T16:00:42;4.39;86.95
76291;DHT22;65100;46.884;17.410;2022-11-20T16:03:11;4.15;87.07
76291;DHT22;65100;46.884;17.410;2022-11-20T16:05:36;3.89;88.58
76291;DHT22;65100;46.884;17.410;2022-11-20T16:08:02;4.28;87.13
76291;DHT22;65100;46.884;17.410;2022-11-20T16:10:28;4.61;84.93
76291;DHT22;65100;46.884;17.410;2022-11-20T16:12:54;4.61;84.67
76291;DHT22;65100;46.884;17.410;2022-11-20T16:15:38;4.54;85.99
76291;DHT22;65100;46.884;17.410;2022-11-20T16:18:18;4.54;86.08
76291;DHT22;65100;46.884;17.410;2022-11-20T16:20:46;4.32;86.94
76291;DHT22;65100;46.884;17.410;2022-11-20T16:23:12;4.52;85.76
76291;DHT22;65100;46.884;17.410;2022-11-20T16:25:58;4.43;86.08
76291;DHT22;65100;46.884;17.410;2022-11-20T16:28:44;4.66;84.81
76291;DHT22;65100;46.884;17.410;2022-11-20T16:31:12;4.74;84.59
76291;DHT22;65100;46.884;17.410;2022-11-20T16:33:38;4.76;84.08
76291;DHT22;65100;46.884;17.410;2022-11-20T16:36:12;4.63;84.58
76291;DHT22;65100;46.884;17.410;2022-11-20T16:38:37;4.36;85.65
76291;DHT22;65100;46.884;17.410;2022-11-20T16:41:03;4.06;86.91
76291;DHT22;65100;46.884;17.410;2022-11-20T16:43:29;4.06;87.87
76291;DHT22;65100;46.884;17.410;2022-11-20T16:45:55;4.30;86.82
76291;DHT22;65100;46.884;17.410;2022-11-20T16:48:20;4.57;86.04
76291;DHT22;65100;46.884;17.410;2022-11-20T16:50:50;4.69;85.26
76291;DHT22;65100;46.884;17.410;2022-11-20T16:53:17;4.74;84.59
76291;DHT22;65100;46.884;17.410;2022-11-20T16:55:44;4.74;83.78
76291;DHT22;65100;46.884;17.410;2022-11-20T16:58:09;4.69;84.08
76291;DHT22;65100;46.884;17.410;2022-11-20T17:00:37;4.63;84.74
76291;DHT22;65100;46.884;17.410;2022-11-20T17:03:03;4.35;84.75
76291;DHT22;65100;46.884;17.410;2022-11-20T17:05:30;4.15;85.70
76291;DHT22;65100;46.884;17.410;2022-11-20T17:07:55;4.12;85.44
76291;DHT22;65100;46.884;17.410;2022-11-20T17:10:21;4.10;84.75
76291;DHT22;65100;46.884;17.410;2022-11-20T17:12:46;4.02;84.83
76291;DHT22;65100;46.884;17.410;2022-11-20T17:15:11;3.85;85.36
76291;DHT22;65100;46.884;17.410;2022-11-20T17:17:37;3.77;85.70